Time;durP1;ratioP1;P1;durP2;ratioP2;P2;SDS_P1;SDS_P2;PMS_P1;PMS_P2;Temp;Humidity;BMP_temperature;BMP_pressure;BME280_temperature;BME280_humidity;BME280_pressure;Samples;Min_cycle;Max_cycle;Signal;HPM_P1;HPM_P2
2024/01/29 00:00:05;;;;;;;225.00;82.95;;;;;;;;;;5050021;28;20036;-47
2024/01/29 00:02:35;;;;;;;216.45;83.68;;;;;;;;;;5050493;28;20428;-46
2024/01/29 00:05:01;;;;;;;245.75;86.68;;;;;;;;;;5048892;28;20041;-47
2024/01/29 00:07:27;;;;;;;317.10;96.18;;;;;;;;;;5049494;28;20115;-47
2024/01/29 00:09:53;;;;;;;254.10;82.43;;;;;;;;;;5051425;28;20122;-46
2024/01/29 00:12:19;;;;;;;226.10;83.07;;;;;;;;;;5049969;28;20514;-49
2024/01/29 00:14:46;;;;;;;340.35;89.80;;;;;;;;;;5050450;28;20494;-46
2024/01/29 00:17:12;;;;;;;303.80;91.77;;;;;;;;;;5050897;28;20029;-46
2024/01/29 00:19:38;;;;;;;242.35;80.75;;;;;;;;;;5049959;28;20040;-49
2024/01/29 00:22:04;;;;;;;446.85;109.13;;;;;;;;;;5050006;28;20430;-45
2024/01/29 00:24:30;;;;;;;243.93;67.95;;;;;;;;;;5049135;28;20087;-47
2024/01/29 00:26:57;;;;;;;271.87;88.80;;;;;;;;;;5049940;28;20080;-47
2024/01/29 00:29:23;;;;;;;337.95;96.07;;;;;;;;;;5049807;28;20025;-48
2024/01/29 00:31:49;;;;;;;249.30;83.45;;;;;;;;;;5049224;28;20391;-49
2024/01/29 00:34:15;;;;;;;249.05;84.65;;;;;;;;;;5051604;28;20403;-47
2024/01/29 00:36:42;;;;;;;277.90;93.70;;;;;;;;;;5051072;28;20031;-47
2024/01/29 00:39:09;;;;;;;326.83;88.17;;;;;;;;;;5050911;28;20035;-46
2024/01/29 00:41:35;;;;;;;;;;;;;;;;;;5051570;28;20056;-47
2024/01/29 00:44:01;;;;;;;228.60;78.03;;;;;;;;;;5051218;28;20296;-50
2024/01/29 00:46:27;;;;;;;191.93;74.40;;;;;;;;;;5050658;28;20426;-47
2024/01/29 00:48:54;;;;;;;204.68;72.20;;;;;;;;;;5050449;28;20095;-49
2024/01/29 00:51:20;;;;;;;202.02;74.30;;;;;;;;;;5050843;28;20051;-45
2024/01/29 00:53:47;;;;;;;193.20;70.83;;;;;;;;;;5049806;28;20025;-45
2024/01/29 00:56:13;;;;;;;210.10;74.70;;;;;;;;;;5049838;28;20041;-50
2024/01/29 00:58:43;;;;;;;158.17;56.40;;;;;;;;;;5053397;28;20032;-47
2024/01/29 01:01:09;;;;;;;264.63;83.97;;;;;;;;;;5053057;28;20051;-46
2024/01/29 01:03:36;;;;;;;188.15;71.63;;;;;;;;;;5054445;28;20120;-46
2024/01/29 01:06:03;;;;;;;180.43;67.90;;;;;;;;;;5052819;28;20445;-46
2024/01/29 01:08:29;;;;;;;151.43;67.22;;;;;;;;;;5053370;28;20033;-45
2024/01/29 01:10:55;;;;;;;134.90;61.20;;;;;;;;;;5054220;28;20071;-45
2024/01/29 01:13:21;;;;;;;139.27;59.45;;;;;;;;;;5054165;28;20116;-46
2024/01/29 01:15:47;;;;;;;145.60;63.80;;;;;;;;;;5054013;28;20029;-46
2024/01/29 01:18:14;;;;;;;157.73;64.27;;;;;;;;;;5054123;28;20166;-46
2024/01/29 01:20:40;;;;;;;148.20;62.90;;;;;;;;;;5053033;28;20028;-48
2024/01/29 01:23:06;;;;;;;156.27;66.97;;;;;;;;;;5054258;28;20345;-47
2024/01/29 01:25:32;;;;;;;147.50;61.58;;;;;;;;;;5053779;28;20163;-46
2024/01/29 01:27:58;;;;;;;139.80;64.35;;;;;;;;;;5052871;28;20049;-46
2024/01/29 01:30:25;;;;;;;140.40;61.80;;;;;;;;;;5052668;28;20017;-46
2024/01/29 01:32:51;;;;;;;146.33;62.03;;;;;;;;;;5053883;28;20155;-47
2024/01/29 01:35:17;;;;;;;141.45;60.85;;;;;;;;;;5053005;28;20032;-46
2024/01/29 01:37:44;;;;;;;122.20;49.33;;;;;;;;;;5053963;28;20054;-47
2024/01/29 01:40:11;;;;;;;177.70;66.05;;;;;;;;;;5053508;28;20263;-47
2024/01/29 01:42:42;;;;;;;149.63;61.08;;;;;;;;;;5019690;28;20040;-47
2024/01/29 01:45:08;;;;;;;146.32;62.08;;;;;;;;;;5053642;28;20111;-48
2024/01/29 01:47:35;;;;;;;156.57;60.75;;;;;;;;;;5053590;28;20068;-46
2024/01/29 01:50:02;;;;;;;149.98;61.08;;;;;;;;;;5053664;28;20032;-46
2024/01/29 01:52:29;;;;;;;151.75;62.00;;;;;;;;;;5052369;28;20064;-49
2024/01/29 01:54:55;;;;;;;168.60;67.97;;;;;;;;;;5053419;28;20036;-46
2024/01/29 01:57:22;;;;;;;143.73;53.38;;;;;;;;;;5053121;28;20039;-49
2024/01/29 01:59:49;;;;;;;208.10;74.03;;;;;;;;;;5052697;28;20394;-47
2024/01/29 02:02:15;;;;;;;169.02;66.78;;;;;;;;;;5053335;28;20037;-49
2024/01/29 02:04:41;;;;;;;197.03;71.57;;;;;;;;;;5052077;28;20035;-49
2024/01/29 02:07:08;;;;;;;180.55;68.18;;;;;;;;;;5051951;28;20260;-48
2024/01/29 02:09:34;;;;;;;166.13;67.90;;;;;;;;;;5052015;28;20521;-46
2024/01/29 02:12:01;;;;;;;153.85;63.88;;;;;;;;;;5053419;28;20092;-50
2024/01/29 02:14:27;;;;;;;187.60;70.68;;;;;;;;;;5053390;28;20024;-47
2024/01/29 02:16:53;;;;;;;180.45;71.80;;;;;;;;;;5052722;28;20032;-46
2024/01/29 02:19:20;;;;;;;173.65;64.65;;;;;;;;;;5051539;28;20108;-49
2024/01/29 02:21:46;;;;;;;164.90;64.47;;;;;;;;;;5053149;28;20029;-46
2024/01/29 02:24:12;;;;;;;170.60;65.55;;;;;;;;;;5053223;28;20009;-49
2024/01/29 02:26:39;;;;;;;175.77;67.77;;;;;;;;;;5052677;28;20040;-46
2024/01/29 02:29:05;;;;;;;204.57;73.00;;;;;;;;;;5051775;28;20048;-49
2024/01/29 02:31:31;;;;;;;170.43;64.80;;;;;;;;;;5052776;28;20032;-49
2024/01/29 02:33:57;;;;;;;160.07;60.53;;;;;;;;;;5052689;28;20356;-47
2024/01/29 02:36:23;;;;;;;192.83;69.50;;;;;;;;;;5052845;28;20067;-47
2024/01/29 02:38:50;;;;;;;414.33;95.43;;;;;;;;;;5052616;28;20573;-47
2024/01/29 02:41:16;;;;;;;187.60;72.15;;;;;;;;;;5034783;28;20503;-47
2024/01/29 02:43:43;;;;;;;307.13;88.53;;;;;;;;;;5051596;28;20025;-47
2024/01/29 02:46:09;;;;;;;236.45;75.07;;;;;;;;;;5051030;28;20514;-49
2024/01/29 02:48:35;;;;;;;199.27;69.00;;;;;;;;;;5052322;28;20028;-49
2024/01/29 02:51:01;;;;;;;268.55;74.18;;;;;;;;;;5052300;28;20029;-49
2024/01/29 02:53:27;;;;;;;192.57;70.55;;;;;;;;;;5051421;28;20032;-46
2024/01/29 02:55:53;;;;;;;311.95;84.22;;;;;;;;;;5052251;28;20028;-49
2024/01/29 02:58:20;;;;;;;194.93;68.38;;;;;;;;;;5052220;28;20025;-49
2024/01/29 03:00:46;;;;;;;173.65;64.63;;;;;;;;;;5052778;28;20083;-49
2024/01/29 03:03:13;;;;;;;196.82;68.30;;;;;;;;;;5052190;28;20041;-46
2024/01/29 03:05:39;;;;;;;267.20;81.20;;;;;;;;;;5051891;28;20028;-49
2024/01/29 03:08:06;;;;;;;215.65;71.88;;;;;;;;;;5051731;28;20108;-47
2024/01/29 03:10:32;;;;;;;214.23;75.03;;;;;;;;;;5034244;28;20513;-46
2024/01/29 03:12:59;;;;;;;177.02;66.47;;;;;;;;;;5051063;28;20059;-46
2024/01/29 03:15:25;;;;;;;177.25;65.55;;;;;;;;;;5051815;28;20104;-47
2024/01/29 03:17:51;;;;;;;183.23;66.90;;;;;;;;;;5050847;28;20533;-49
2024/01/29 03:20:17;;;;;;;256.40;79.97;;;;;;;;;;5050009;28;20282;-48
2024/01/29 03:22:44;;;;;;;241.33;78.00;;;;;;;;;;5051894;28;20036;-46
2024/01/29 03:25:10;;;;;;;253.90;79.85;;;;;;;;;;5052063;28;20035;-45
2024/01/29 03:27:36;;;;;;;321.98;95.03;;;;;;;;;;5051985;28;20032;-44
2024/01/29 03:30:02;;;;;;;218.45;72.15;;;;;;;;;;5034038;28;20028;-46
2024/01/29 03:32:29;;;;;;;161.43;61.90;;;;;;;;;;5050350;28;20037;-48
2024/01/29 03:34:55;;;;;;;167.55;65.90;;;;;;;;;;5051685;28;20121;-45
2024/01/29 03:37:21;;;;;;;180.60;63.83;;;;;;;;;;5057919;28;20032;-45
2024/01/29 03:39:47;;;;;;;171.32;63.03;;;;;;;;;;5051829;28;20123;-45
2024/01/29 03:42:13;;;;;;;116.97;45.58;;;;;;;;;;5050111;28;20074;-46
2024/01/29 03:44:39;;;;;;;136.13;55.45;;;;;;;;;;5051439;28;20028;-45
2024/01/29 03:47:06;;;;;;;141.13;55.53;;;;;;;;;;5050937;28;20028;-45
2024/01/29 03:49:32;;;;;;;130.37;51.00;;;;;;;;;;5051522;28;20040;-45
2024/01/29 03:51:58;;;;;;;130.45;53.17;;;;;;;;;;5048646;28;20025;-46
2024/01/29 03:54:24;;;;;;;127.88;50.40;;;;;;;;;;5050017;28;20025;-45
2024/01/29 03:56:50;;;;;;;136.70;54.95;;;;;;;;;;5050942;28;20475;-45
2024/01/29 03:59:17;;;;;;;135.60;53.33;;;;;;;;;;5051544;28;20044;-45
2024/01/29 04:01:43;;;;;;;130.38;53.78;;;;;;;;;;5051230;28;20390;-45
2024/01/29 04:04:10;;;;;;;137.10;55.80;;;;;;;;;;5051029;28;20155;-46
2024/01/29 04:06:43;;;;;;;157.73;58.67;;;;;;;;;;5049766;28;20025;-46
2024/01/29 04:09:10;;;;;;;166.60;65.97;;;;;;;;;;5050165;28;20032;-46
2024/01/29 04:11:36;;;;;;;175.05;57.22;;;;;;;;;;5051179;28;20025;-48
2024/01/29 04:14:03;;;;;;;224.35;72.70;;;;;;;;;;5049735;28;20033;-45
2024/01/29 04:16:30;;;;;;;170.43;59.88;;;;;;;;;;5062444;28;20032;-45
2024/01/29 04:18:56;;;;;;;218.30;63.80;;;;;;;;;;5050010;28;20403;-46
2024/01/29 04:21:22;;;;;;;148.32;56.85;;;;;;;;;;5051111;28;20090;-46
2024/01/29 04:23:48;;;;;;;143.87;55.63;;;;;;;;;;5049677;28;20068;-45
2024/01/29 04:26:14;;;;;;;153.65;57.53;;;;;;;;;;5049431;28;20060;-47
2024/01/29 04:28:41;;;;;;;138.20;51.00;;;;;;;;;;5050597;28;20021;-45
2024/01/29 04:31:07;;;;;;;124.80;50.03;;;;;;;;;;5051139;28;20413;-47
2024/01/29 04:33:33;;;;;;;129.53;50.43;;;;;;;;;;5055001;28;20098;-45
2024/01/29 04:35:59;;;;;;;118.30;47.60;;;;;;;;;;5053582;28;20033;-45
2024/01/29 04:38:25;;;;;;;122.32;45.60;;;;;;;;;;5053834;28;20029;-48
2024/01/29 04:40:52;;;;;;;113.73;47.67;;;;;;;;;;5055136;28;20334;-45
2024/01/29 04:43:18;;;;;;;119.80;48.53;;;;;;;;;;5053902;28;20021;-46
2024/01/29 04:45:44;;;;;;;119.65;49.28;;;;;;;;;;5055801;28;20499;-46
2024/01/29 04:48:10;;;;;;;122.70;48.77;;;;;;;;;;5054933;28;20064;-45
2024/01/29 04:50:36;;;;;;;119.68;48.58;;;;;;;;;;5054560;28;20020;-44
2024/01/29 04:53:03;;;;;;;106.07;45.13;;;;;;;;;;5036653;28;20025;-46
2024/01/29 04:55:30;;;;;;;142.40;55.95;;;;;;;;;;5054518;28;20021;-46
2024/01/29 04:57:56;;;;;;;137.52;50.15;;;;;;;;;;5052425;28;20406;-45
2024/01/29 05:00:22;;;;;;;106.85;47.13;;;;;;;;;;5053443;28;20123;-47
2024/01/29 05:02:48;;;;;;;113.27;47.93;;;;;;;;;;5054714;28;20527;-46
2024/01/29 05:05:15;;;;;;;130.15;49.05;;;;;;;;;;5054477;28;20116;-45
2024/01/29 05:07:42;;;;;;;133.75;49.05;;;;;;;;;;5055096;28;20105;-45
2024/01/29 05:10:08;;;;;;;126.75;53.33;;;;;;;;;;5053209;28;20021;-45
2024/01/29 05:12:34;;;;;;;131.50;51.55;;;;;;;;;;5052635;28;20043;-45
2024/01/29 05:15:01;;;;;;;149.77;55.05;;;;;;;;;;5054460;28;20029;-45
2024/01/29 05:17:27;;;;;;;189.93;58.60;;;;;;;;;;5054234;28;20037;-45
2024/01/29 05:19:53;;;;;;;251.93;57.70;;;;;;;;;;5054130;28;20024;-46
2024/01/29 05:22:19;;;;;;;185.80;59.50;;;;;;;;;;5052907;28;20120;-46
2024/01/29 05:24:45;;;;;;;402.00;85.82;;;;;;;;;;5053648;28;20056;-46
2024/01/29 05:27:12;;;;;;;256.63;60.80;;;;;;;;;;5053338;28;20057;-45
2024/01/29 05:29:38;;;;;;;169.38;54.03;;;;;;;;;;5052914;28;20025;-46
2024/01/29 05:32:04;;;;;;;156.20;54.20;;;;;;;;;;5054207;28;20072;-45
2024/01/29 05:34:31;;;;;;;189.75;53.50;;;;;;;;;;5054306;28;20108;-45
2024/01/29 05:36:57;;;;;;;169.07;55.70;;;;;;;;;;5052766;28;20025;-48
2024/01/29 05:39:23;;;;;;;207.40;54.58;;;;;;;;;;5054263;28;20403;-46
2024/01/29 05:41:49;;;;;;;233.68;60.50;;;;;;;;;;5053546;28;20485;-45
2024/01/29 05:44:16;;;;;;;133.80;48.08;;;;;;;;;;5053981;28;20597;-45
2024/01/29 05:46:42;;;;;;;120.60;48.80;;;;;;;;;;5052622;28;20491;-45
2024/01/29 05:49:08;;;;;;;170.68;52.08;;;;;;;;;;5052720;28;20104;-45
2024/01/29 05:51:34;;;;;;;197.32;54.15;;;;;;;;;;5052668;28;20029;-46
2024/01/29 05:54:00;;;;;;;150.70;52.73;;;;;;;;;;5053931;28;20025;-48
2024/01/29 05:56:26;;;;;;;235.75;57.55;;;;;;;;;;5053810;28;20063;-47
2024/01/29 05:58:53;;;;;;;126.80;47.60;;;;;;;;;;5052546;28;20040;-47
2024/01/29 06:01:19;;;;;;;277.50;64.57;;;;;;;;;;5053512;28;20491;-45
2024/01/29 06:03:45;;;;;;;271.70;62.57;;;;;;;;;;5053735;28;20033;-45
2024/01/29 06:06:11;;;;;;;124.40;43.07;;;;;;;;;;5053473;28;20033;-45
2024/01/29 06:08:38;;;;;;;147.00;43.53;;;;;;;;;;5052375;28;20510;-47
2024/01/29 06:11:04;;;;;;;153.38;48.47;;;;;;;;;;5053545;28;20017;-48
2024/01/29 06:13:31;;;;;;;162.57;47.23;;;;;;;;;;5053409;28;20503;-46
2024/01/29 06:15:58;;;;;;;185.45;43.78;;;;;;;;;;5053377;28;20052;-45
2024/01/29 06:18:24;;;;;;;103.72;40.05;;;;;;;;;;5053649;28;20398;-46
2024/01/29 06:20:50;;;;;;;237.03;54.40;;;;;;;;;;5035411;28;20052;-46
2024/01/29 06:23:17;;;;;;;106.90;39.85;;;;;;;;;;5052126;28;20082;-46
2024/01/29 06:25:44;;;;;;;127.45;42.22;;;;;;;;;;5035157;28;20025;-48
2024/01/29 06:28:10;;;;;;;137.77;43.85;;;;;;;;;;5051984;28;20125;-47
2024/01/29 06:30:37;;;;;;;120.47;42.63;;;;;;;;;;5053162;28;20088;-47
2024/01/29 06:33:04;;;;;;;;;;;;;;;;;;5053576;28;20048;-45
2024/01/29 06:35:30;;;;;;;118.20;43.47;;;;;;;;;;5051396;28;19908;-46
2024/01/29 06:37:56;;;;;;;201.13;47.03;;;;;;;;;;5053181;28;20037;-47
2024/01/29 06:40:27;;;;;;;195.15;49.00;;;;;;;;;;5052957;28;20037;-46
2024/01/29 06:42:54;;;;;;;249.27;56.35;;;;;;;;;;5053111;28;20029;-49
2024/01/29 06:45:21;;;;;;;296.45;68.03;;;;;;;;;;5051533;28;20036;-47
2024/01/29 06:47:48;;;;;;;169.50;46.42;;;;;;;;;;5052833;28;20029;-47
2024/01/29 06:50:14;;;;;;;132.60;47.67;;;;;;;;;;5052015;28;20124;-45
2024/01/29 06:52:40;;;;;;;155.00;47.30;;;;;;;;;;5051600;28;20039;-47
2024/01/29 06:55:08;;;;;;;158.35;47.45;;;;;;;;;;5050509;28;20049;-45
2024/01/29 06:57:35;;;;;;;365.95;79.55;;;;;;;;;;5034992;28;20090;-46
2024/01/29 07:00:01;;;;;;;166.30;49.33;;;;;;;;;;5052600;28;20575;-46
2024/01/29 07:02:28;;;;;;;141.05;39.88;;;;;;;;;;5051392;28;20267;-45
2024/01/29 07:04:54;;;;;;;197.98;56.00;;;;;;;;;;5051180;28;20025;-46
2024/01/29 07:07:20;;;;;;;208.83;54.40;;;;;;;;;;5052431;28;20403;-46
2024/01/29 07:09:46;;;;;;;163.23;53.10;;;;;;;;;;5051061;28;20041;-45
2024/01/29 07:12:15;;;;;;;156.32;50.22;;;;;;;;;;5052306;28;20021;-45
2024/01/29 07:14:41;;;;;;;283.63;63.40;;;;;;;;;;5052476;28;20017;-48
2024/01/29 07:17:07;;;;;;;194.75;55.35;;;;;;;;;;5052209;28;20415;-46
2024/01/29 07:19:34;;;;;;;172.40;50.37;;;;;;;;;;5050946;28;20368;-45
2024/01/29 07:22:04;;;;;;;311.38;67.95;;;;;;;;;;5050842;28;20021;-46
2024/01/29 07:24:32;;;;;;;214.18;59.95;;;;;;;;;;5050829;28;20033;-49
2024/01/29 07:26:59;;;;;;;144.15;48.72;;;;;;;;;;5051952;28;20134;-44
2024/01/29 07:29:26;;;;;;;164.35;54.88;;;;;;;;;;5050198;28;20029;-46
2024/01/29 07:31:53;;;;;;;;;;;;;;;;;;5051052;28;20029;-47
2024/01/29 07:34:19;;;;;;;191.25;53.30;;;;;;;;;;5052183;28;19916;-44
2024/01/29 07:36:45;;;;;;;239.25;61.65;;;;;;;;;;5052459;28;20068;-44
2024/01/29 07:39:12;;;;;;;320.25;68.32;;;;;;;;;;5051037;28;20515;-46
2024/01/29 07:41:41;;;;;;;148.25;51.47;;;;;;;;;;5052000;28;20029;-44
2024/01/29 07:44:08;;;;;;;273.65;66.07;;;;;;;;;;5050947;28;20368;-47
2024/01/29 07:46:34;;;;;;;218.37;59.23;;;;;;;;;;5050640;28;20391;-46
2024/01/29 07:49:03;;;;;;;177.77;55.77;;;;;;;;;;5050759;28;20044;-46
2024/01/29 07:51:29;;;;;;;116.35;48.95;;;;;;;;;;5051536;28;20032;-45
2024/01/29 07:53:56;;;;;;;136.93;51.20;;;;;;;;;;5051688;28;20044;-46
2024/01/29 07:56:22;;;;;;;157.10;51.20;;;;;;;;;;5050130;28;20033;-45
2024/01/29 07:58:48;;;;;;;216.60;60.53;;;;;;;;;;5051338;28;20029;-48
2024/01/29 08:01:14;;;;;;;140.75;51.10;;;;;;;;;;5051583;28;20040;-46
2024/01/29 08:03:40;;;;;;;165.45;55.88;;;;;;;;;;5051608;28;20124;-45
2024/01/29 08:06:07;;;;;;;170.45;54.28;;;;;;;;;;5049740;28;20055;-46
2024/01/29 08:08:36;;;;;;;248.35;66.03;;;;;;;;;;5050309;28;20040;-45
2024/01/29 08:11:02;;;;;;;113.38;44.72;;;;;;;;;;5051368;28;20111;-45
2024/01/29 08:13:28;;;;;;;168.82;52.22;;;;;;;;;;5051380;28;20506;-44
2024/01/29 08:15:55;;;;;;;214.23;59.87;;;;;;;;;;5050237;28;20041;-45
2024/01/29 08:18:21;;;;;;;156.73;48.38;;;;;;;;;;5051438;28;20029;-47
2024/01/29 08:20:48;;;;;;;143.85;49.90;;;;;;;;;;5051324;28;20105;-44
2024/01/29 08:23:14;;;;;;;164.63;50.40;;;;;;;;;;5051444;28;20511;-45
2024/01/29 08:25:40;;;;;;;334.13;76.50;;;;;;;;;;5051163;28;20663;-46
2024/01/29 08:28:07;;;;;;;237.15;63.53;;;;;;;;;;5051579;28;20117;-45
2024/01/29 08:30:33;;;;;;;139.93;51.72;;;;;;;;;;5051124;28;20025;-45
2024/01/29 08:32:59;;;;;;;161.13;57.40;;;;;;;;;;5050017;28;20025;-45
2024/01/29 08:35:25;;;;;;;178.57;57.33;;;;;;;;;;5051247;28;20391;-46
2024/01/29 08:37:51;;;;;;;179.85;55.60;;;;;;;;;;5051322;28;20086;-46
2024/01/29 08:40:18;;;;;;;249.45;67.70;;;;;;;;;;5051148;28;20076;-45
2024/01/29 08:42:44;;;;;;;185.17;57.50;;;;;;;;;;5051283;28;20059;-44
2024/01/29 08:45:15;;;;;;;123.70;51.22;;;;;;;;;;5050803;28;20024;-45
2024/01/29 08:47:41;;;;;;;125.80;51.15;;;;;;;;;;5051285;28;20021;-44
2024/01/29 08:50:08;;;;;;;161.90;57.90;;;;;;;;;;5049941;28;20056;-45
2024/01/29 08:52:35;;;;;;;194.95;61.20;;;;;;;;;;5049661;28;20174;-46
2024/01/29 08:55:02;;;;;;;189.48;60.03;;;;;;;;;;5051126;28;20411;-46
2024/01/29 08:57:28;;;;;;;180.65;57.33;;;;;;;;;;5051001;28;20021;-46
2024/01/29 08:59:55;;;;;;;136.70;50.17;;;;;;;;;;5050817;28;20055;-45
2024/01/29 09:02:21;;;;;;;199.33;65.07;;;;;;;;;;5049737;28;20029;-47
2024/01/29 09:04:47;;;;;;;196.60;66.77;;;;;;;;;;5050889;28;20025;-46
2024/01/29 09:07:17;;;;;;;129.27;49.47;;;;;;;;;;5050816;28;20032;-46
2024/01/29 09:09:44;;;;;;;130.55;46.95;;;;;;;;;;5050961;28;20100;-46
2024/01/29 09:12:10;;;;;;;123.03;49.58;;;;;;;;;;5050948;28;20032;-48
2024/01/29 09:14:36;;;;;;;133.70;47.72;;;;;;;;;;5050740;28;20067;-46
2024/01/29 09:17:02;;;;;;;137.00;45.97;;;;;;;;;;5033138;28;20510;-46
2024/01/29 09:19:28;;;;;;;137.80;52.47;;;;;;;;;;5054533;28;20017;-46
2024/01/29 09:21:55;;;;;;;117.82;50.97;;;;;;;;;;5054395;28;20032;-45
2024/01/29 09:24:21;;;;;;;123.60;53.10;;;;;;;;;;5054383;28;20064;-46
2024/01/29 09:26:47;;;;;;;129.65;51.45;;;;;;;;;;5054179;28;20045;-46
2024/01/29 09:29:13;;;;;;;135.75;53.53;;;;;;;;;;5054349;28;20021;-47
2024/01/29 09:31:42;;;;;;;106.97;48.78;;;;;;;;;;5054237;28;20040;-45
2024/01/29 09:34:09;;;;;;;127.82;53.38;;;;;;;;;;5035219;28;20108;-46
2024/01/29 09:36:35;;;;;;;112.77;49.17;;;;;;;;;;5052706;28;20036;-45
2024/01/29 09:39:02;;;;;;;124.30;49.53;;;;;;;;;;5054137;28;20052;-46
2024/01/29 09:41:35;;;;;;;114.85;50.15;;;;;;;;;;5036303;28;20036;-45
2024/01/29 09:44:04;;;;;;;126.20;52.22;;;;;;;;;;5054187;28;20063;-46
2024/01/29 09:46:31;;;;;;;103.95;47.00;;;;;;;;;;5053815;28;20503;-46
2024/01/29 09:48:57;;;;;;;121.35;49.60;;;;;;;;;;5053971;28;20029;-47
2024/01/29 09:51:24;;;;;;;127.40;56.03;;;;;;;;;;5053797;28;20024;-44
2024/01/29 09:53:51;;;;;;;110.40;49.20;;;;;;;;;;5053906;28;20383;-47
2024/01/29 09:56:17;;;;;;;;;;;;;;;;;;5052825;28;20067;-46
2024/01/29 09:58:43;;;;;;;108.03;48.42;;;;;;;;;;5052711;28;19927;-48
2024/01/29 10:01:11;;;;;;;91.93;43.17;;;;;;;;;;5053679;28;20036;-44
2024/01/29 10:03:38;;;;;;;98.70;44.92;;;;;;;;;;5053715;28;20148;-45
2024/01/29 10:06:05;;;;;;;123.55;52.33;;;;;;;;;;5053555;28;20025;-43
2024/01/29 10:08:32;;;;;;;96.93;45.50;;;;;;;;;;5053740;28;20396;-43
2024/01/29 10:10:58;;;;;;;101.55;46.50;;;;;;;;;;5052089;28;20271;-47
2024/01/29 10:13:24;;;;;;;100.87;44.00;;;;;;;;;;5053483;28;20096;-48
2024/01/29 10:15:52;;;;;;;95.93;43.50;;;;;;;;;;5051271;28;20309;-46
2024/01/29 10:18:18;;;;;;;100.65;43.40;;;;;;;;;;5051224;28;20029;-47
2024/01/29 10:20:44;;;;;;;101.70;44.40;;;;;;;;;;5053002;28;20093;-46
2024/01/29 10:23:11;;;;;;;99.07;44.35;;;;;;;;;;5053245;28;20033;-46
2024/01/29 10:25:38;;;;;;;105.95;47.25;;;;;;;;;;5052879;28;20041;-45
2024/01/29 10:28:14;;;;;;;108.85;43.95;;;;;;;;;;5053101;28;20025;-46
2024/01/29 10:30:41;;;;;;;110.50;48.58;;;;;;;;;;5053120;28;20078;-45
2024/01/29 10:33:07;;;;;;;102.80;46.45;;;;;;;;;;5051933;28;20056;-46
2024/01/29 10:35:34;;;;;;;117.13;46.78;;;;;;;;;;5052769;28;20494;-45
2024/01/29 10:38:04;;;;;;;110.72;48.40;;;;;;;;;;5052868;28;20491;-45
2024/01/29 10:40:34;;;;;;;116.10;49.72;;;;;;;;;;5052837;28;20044;-46
2024/01/29 10:43:01;;;;;;;108.78;46.65;;;;;;;;;;5052712;28;20060;-47
2024/01/29 10:45:27;;;;;;;104.43;45.58;;;;;;;;;;5051216;28;20033;-45
2024/01/29 10:47:56;;;;;;;94.82;40.83;;;;;;;;;;5052864;28;20479;-46
2024/01/29 10:50:22;;;;;;;94.30;43.90;;;;;;;;;;5052392;28;20024;-45
2024/01/29 10:52:51;;;;;;;101.22;44.88;;;;;;;;;;5052636;28;20561;-47
2024/01/29 10:55:17;;;;;;;98.97;45.75;;;;;;;;;;5051083;28;20040;-49
2024/01/29 10:57:47;;;;;;;101.38;45.25;;;;;;;;;;5052658;28;20442;-46
2024/01/29 11:00:16;;;;;;;104.97;45.80;;;;;;;;;;5052532;28;20503;-45
2024/01/29 11:02:43;;;;;;;98.88;44.97;;;;;;;;;;5052547;28;20025;-46
2024/01/29 11:05:11;;;;;;;99.32;43.58;;;;;;;;;;5050902;28;20490;-45
2024/01/29 11:07:39;;;;;;;95.88;47.13;;;;;;;;;;5051591;28;20060;-46
2024/01/29 11:10:34;;;;;;;94.65;44.67;;;;;;;;;;5052290;28;20036;-46
2024/01/29 11:13:01;;;;;;;98.82;43.30;;;;;;;;;;5034500;28;20044;-48
2024/01/29 11:15:27;;;;;;;90.70;40.55;;;;;;;;;;5050890;28;20395;-46
2024/01/29 11:17:56;;;;;;;108.67;50.33;;;;;;;;;;5046472;28;20035;-47
2024/01/29 11:20:23;;;;;;;103.30;45.38;;;;;;;;;;5035487;28;20406;-48
2024/01/29 11:22:53;;;;;;;95.18;42.78;;;;;;;;;;5051117;28;20043;-47
2024/01/29 11:25:20;;;;;;;105.68;45.65;;;;;;;;;;5051169;28;20029;-49
2024/01/29 11:27:48;;;;;;;88.68;40.83;;;;;;;;;;5032352;28;20525;-46
2024/01/29 11:30:18;;;;;;;98.78;43.78;;;;;;;;;;5051103;28;20029;-47
2024/01/29 11:32:45;;;;;;;88.30;42.80;;;;;;;;;;5051093;28;20028;-46
2024/01/29 11:35:15;;;;;;;99.00;45.08;;;;;;;;;;5049810;28;20086;-45
2024/01/29 11:37:42;;;;;;;89.43;41.70;;;;;;;;;;5051246;28;20044;-46
2024/01/29 11:40:29;;;;;;;97.47;43.90;;;;;;;;;;5051174;28;20028;-48
2024/01/29 11:42:55;;;;;;;100.78;42.63;;;;;;;;;;5037073;28;20041;-46
2024/01/29 11:45:23;;;;;;;99.40;50.45;;;;;;;;;;5054072;28;20749;-47
2024/01/29 11:47:49;;;;;;;111.63;49.90;;;;;;;;;;5047166;28;20024;-48
2024/01/29 11:50:16;;;;;;;107.72;51.83;;;;;;;;;;5048360;28;20060;-46
2024/01/29 11:52:42;;;;;;;104.40;46.67;;;;;;;;;;5050131;28;20040;-46
2024/01/29 11:55:09;;;;;;;100.55;51.78;;;;;;;;;;5049735;28;20025;-45
2024/01/29 11:57:35;;;;;;;;;;;;;;;;;;5049922;28;20159;-46
2024/01/29 12:00:02;;;;;;;96.85;48.70;;;;;;;;;;5059772;28;20328;-45
2024/01/29 12:02:30;;;;;;;105.63;44.90;;;;;;;;;;5049896;28;20414;-46
2024/01/29 12:04:58;;;;;;;99.15;45.30;;;;;;;;;;5061148;28;20039;-46
2024/01/29 12:07:25;;;;;;;95.45;43.97;;;;;;;;;;5048025;28;20064;-46
2024/01/29 12:09:51;;;;;;;100.25;47.50;;;;;;;;;;5027069;28;20033;-46
2024/01/29 12:12:17;;;;;;;90.93;44.17;;;;;;;;;;5049663;28;20025;-46
2024/01/29 12:14:43;;;;;;;105.10;50.47;;;;;;;;;;5048656;28;20468;-46
2024/01/29 12:17:12;;;;;;;100.85;45.47;;;;;;;;;;5049629;28;20021;-47
2024/01/29 12:19:39;;;;;;;80.50;42.03;;;;;;;;;;5048994;28;20034;-46
2024/01/29 12:22:05;;;;;;;95.63;45.13;;;;;;;;;;5048873;28;20032;-46
2024/01/29 12:24:31;;;;;;;89.43;44.40;;;;;;;;;;5047163;28;20408;-46
2024/01/29 12:26:59;;;;;;;95.13;47.30;;;;;;;;;;5047217;28;20056;-46
2024/01/29 12:29:25;;;;;;;82.88;42.78;;;;;;;;;;5042877;28;20029;-46
2024/01/29 12:31:51;;;;;;;82.77;43.07;;;;;;;;;;5048221;28;20495;-46
2024/01/29 12:34:20;;;;;;;74.05;38.15;;;;;;;;;;5049814;28;20025;-45
2024/01/29 12:36:54;;;;;;;67.65;37.97;;;;;;;;;;5049262;28;20418;-46
2024/01/29 12:39:21;;;;;;;72.03;39.85;;;;;;;;;;5029780;28;20036;-45
2024/01/29 12:41:47;;;;;;;67.77;37.60;;;;;;;;;;5049428;28;20115;-46
2024/01/29 12:44:13;;;;;;;72.82;41.92;;;;;;;;;;5049344;28;20025;-46
2024/01/29 12:46:40;;;;;;;68.55;37.55;;;;;;;;;;5049013;28;20036;-46
2024/01/29 12:49:06;;;;;;;67.30;35.20;;;;;;;;;;5048279;28;20033;-45
2024/01/29 12:51:32;;;;;;;71.13;40.87;;;;;;;;;;5047249;28;20033;-46
2024/01/29 12:53:59;;;;;;;80.90;45.80;;;;;;;;;;5050406;28;20033;-46
2024/01/29 12:56:27;;;;;;;73.20;39.13;;;;;;;;;;5052987;28;20029;-47
2024/01/29 12:58:54;;;;;;;76.20;41.08;;;;;;;;;;5053283;28;20028;-46
2024/01/29 13:01:20;;;;;;;63.70;36.55;;;;;;;;;;5052675;28;20027;-48
2024/01/29 13:03:46;;;;;;;63.17;35.03;;;;;;;;;;5053096;28;20029;-47
2024/01/29 13:06:12;;;;;;;71.72;41.60;;;;;;;;;;5051436;28;20082;-46
2024/01/29 13:08:39;;;;;;;69.13;37.13;;;;;;;;;;5051947;28;20027;-46
2024/01/29 13:11:05;;;;;;;64.85;39.97;;;;;;;;;;5052970;28;20100;-46
2024/01/29 13:13:33;;;;;;;65.90;39.15;;;;;;;;;;5051588;28;20386;-46
2024/01/29 13:19:29;;;;;;;73.85;41.88;;;;;;;;;;5052947;28;20112;-48
2024/01/29 13:21:55;;;;;;;76.40;42.20;;;;;;;;;;5052939;28;20060;-46
2024/01/29 13:24:21;;;;;;;71.93;41.10;;;;;;;;;;5052771;28;20029;-46
2024/01/29 13:26:48;;;;;;;68.80;42.08;;;;;;;;;;5049529;28;20104;-46
2024/01/29 13:29:14;;;;;;;86.00;43.30;;;;;;;;;;5051320;28;20499;-46
2024/01/29 13:31:41;;;;;;;65.63;40.47;;;;;;;;;;5051529;28;20392;-46
2024/01/29 13:34:08;;;;;;;69.63;37.33;;;;;;;;;;5052938;28;20021;-47
2024/01/29 13:36:34;;;;;;;67.00;40.37;;;;;;;;;;5052401;28;20036;-46
2024/01/29 13:39:00;;;;;;;68.35;41.58;;;;;;;;;;5050937;28;20032;-45
2024/01/29 13:41:26;;;;;;;67.35;41.28;;;;;;;;;;5051380;28;20488;-48
2024/01/29 13:43:53;;;;;;;59.85;37.00;;;;;;;;;;5053208;28;20056;-48
2024/01/29 13:46:19;;;;;;;65.43;38.83;;;;;;;;;;5035261;28;20033;-47
2024/01/29 13:48:45;;;;;;;68.88;40.70;;;;;;;;;;5051929;28;20025;-47
2024/01/29 13:51:20;;;;;;;72.38;42.22;;;;;;;;;;5051402;28;20078;-45
2024/01/29 13:53:47;;;;;;;65.03;39.80;;;;;;;;;;5051955;28;20104;-47
2024/01/29 14:31:30;;;;;;;50.55;35.80;;;;;;;;;;5071657;28;20036;-47
2024/01/29 14:33:57;;;;;;;54.63;37.70;;;;;;;;;;5052338;28;20024;-47
2024/01/29 14:36:23;;;;;;;54.97;36.15;;;;;;;;;;5069297;28;20028;-49
2024/01/29 14:38:55;;;;;;;56.88;36.03;;;;;;;;;;5053502;28;20398;-46
2024/01/29 14:41:23;;;;;;;54.28;35.17;;;;;;;;;;5054230;28;20036;-48
2024/01/29 14:43:49;;;;;;;56.45;36.35;;;;;;;;;;5055151;28;20036;-48